Time;durP1;ratioP1;P1;durP2;ratioP2;P2;SDS_P1;SDS_P2;PMS_P1;PMS_P2;Temp;Humidity;BMP_temperature;BMP_pressure;BME280_temperature;BME280_humidity;BME280_pressure;Samples;Min_cycle;Max_cycle;Signal;HPM_P1;HPM_P2
2022/01/25 11:13:23;;;;;;;0.10;0.10;;;5.40;99.90;;;;;;6186071;23;20020;-96
2022/01/25 12:17:47;;;;;;;0.10;0.10;;;5.60;99.90;;;;;;6187420;22;20024;-88
2022/01/25 12:20:22;;;;;;;0.10;0.10;;;5.60;99.90;;;;;;6226666;23;20010;-87
2022/01/25 12:23:05;;;;;;;0.10;0.10;;;5.60;99.90;;;;;;6223704;23;20020;-87
2022/01/25 12:25:57;;;;;;;0.10;0.10;;;5.60;99.90;;;;;;6202557;23;20016;-87
2022/01/25 12:28:46;;;;;;;0.10;0.10;;;5.60;99.90;;;;;;6194897;23;20295;-86
2022/01/25 12:31:17;;;;;;;0.10;0.10;;;5.60;99.90;;;;;;6196878;23;20020;-86
2022/01/25 12:33:46;;;;;;;0.10;0.10;;;5.60;99.90;;;;;;6193782;23;20082;-86
2022/01/25 12:36:13;;;;;;;0.10;0.10;;;5.50;99.90;;;;;;6221063;23;20057;-85
2022/01/25 12:38:43;;;;;;;0.10;0.10;;;5.60;99.90;;;;;;6194568;23;20024;-86
2022/01/25 12:41:13;;;;;;;0.10;0.10;;;5.60;99.90;;;;;;6170642;23;20471;-86
2022/01/25 12:43:45;;;;;;;0.10;0.10;;;7.90;99.90;;;;;;6173006;23;20024;-85
2022/01/25 12:46:14;;;;;;;0.10;0.10;;;5.60;99.90;;;;;;6195656;23;20024;-86
2022/01/25 12:48:46;;;;;;;0.10;0.10;;;5.50;99.90;;;;;;6169288;23;20021;-86
2022/01/25 12:51:18;;;;;;;0.10;0.10;;;5.60;99.90;;;;;;6220246;23;20020;-86
2022/01/25 12:53:48;;;;;;;0.10;0.10;;;5.60;99.90;;;;;;6195837;23;20313;-87
2022/01/25 12:56:18;;;;;;;0.10;0.10;;;5.70;99.90;;;;;;6194238;23;20021;-85
2022/01/25 12:58:52;;;;;;;0.10;0.10;;;5.60;99.90;;;;;;6192343;23;20016;-84
2022/01/25 13:01:21;;;;;;;0.10;0.10;;;5.60;99.90;;;;;;6194554;23;20032;-86
2022/01/25 13:03:52;;;;;;;0.10;0.10;;;5.70;99.90;;;;;;6194743;23;20459;-84
2022/01/25 13:06:24;;;;;;;0.10;0.10;;;5.70;99.90;;;;;;6193399;23;20016;-85
2022/01/25 13:09:00;;;;;;;0.00;0.00;;;5.70;99.90;;;;;;6195706;23;20029;-85
2022/01/25 13:11:41;;;;;;;0.10;0.10;;;5.70;99.90;;;;;;6172468;23;20020;-86
2022/01/25 13:16:47;;;;;;;0.10;0.10;;;5.70;99.90;;;;;;6216782;23;20407;-86
2022/01/25 13:19:17;;;;;;;0.10;0.10;;;5.70;99.90;;;;;;6194950;23;20059;-87
2022/01/25 13:21:49;;;;;;;;;;;5.70;99.90;;;;;;6195137;23;20016;-86
2022/01/25 13:24:36;;;;;;;0.10;0.10;;;5.70;99.90;;;;;;6221939;23;19916;-86
2022/01/25 13:27:08;;;;;;;0.10;0.10;;;5.60;99.90;;;;;;6194544;23;20451;-87
2022/01/25 13:32:24;;;;;;;0.03;0.03;;;5.70;99.90;;;;;;6218281;23;20023;-85
2022/01/25 13:35:12;;;;;;;0.00;0.00;;;5.60;99.90;;;;;;6195780;23;20020;-86
2022/01/25 13:37:40;;;;;;;0.10;0.10;;;5.60;99.90;;;;;;6168940;23;20043;-86
2022/01/25 13:40:09;;;;;;;0.10;0.10;;;5.60;99.90;;;;;;6192557;23;20024;-86
2022/01/25 13:43:07;;;;;;;0.05;0.05;;;5.60;99.90;;;;;;6193235;23;20020;-86
2022/01/25 13:45:46;;;;;;;0.10;0.10;;;;;;;;;;6213581;23;20071;-86
2022/01/25 13:48:19;;;;;;;0.00;0.00;;;5.60;99.90;;;;;;6194586;23;20048;-86
2022/01/25 13:50:46;;;;;;;0.00;0.00;;;;;;;;;;6203397;23;20074;-86
2022/01/25 13:53:18;;;;;;;0.10;0.10;;;5.60;99.90;;;;;;6194665;23;20094;-85
2022/01/25 13:55:48;;;;;;;0.10;0.10;;;5.60;99.90;;;;;;6218344;23;20020;-86
2022/01/25 13:58:20;;;;;;;0.10;0.10;;;5.60;99.90;;;;;;6220001;23;20020;-87
2022/01/25 14:00:48;;;;;;;0.10;0.10;;;5.60;99.90;;;;;;6190503;23;20459;-86
2022/01/25 14:03:17;;;;;;;0.10;0.10;;;5.60;99.90;;;;;;6190457;23;20016;-87
2022/01/25 14:05:44;;;;;;;0.00;0.00;;;;;;;;;;6192718;23;20028;-87
2022/01/25 14:08:11;;;;;;;0.00;0.00;;;;;;;;;;6191165;23;20526;-86
2022/01/25 14:10:44;;;;;;;0.10;0.10;;;5.60;99.90;;;;;;6193449;23;20518;-87
2022/01/25 14:21:54;;;;;;;0.10;0.10;;;5.60;99.90;;;;;;6195004;23;20024;-86
2022/01/25 14:24:29;;;;;;;0.10;0.10;;;5.60;99.90;;;;;;6193162;23;20185;-85
2022/01/25 14:27:15;;;;;;;0.10;0.10;;;5.60;99.90;;;;;;6220103;23;20021;-86
2022/01/25 14:29:42;;;;;;;0.10;0.10;;;;;;;;;;6219470;23;20017;-85
2022/01/25 14:32:10;;;;;;;0.10;0.10;;;;;;;;;;6193341;23;20017;-86
2022/01/25 14:34:38;;;;;;;0.10;0.10;;;5.60;99.90;;;;;;6193770;23;20107;-85
2022/01/25 14:37:11;;;;;;;0.10;0.10;;;5.60;99.90;;;;;;6204201;23;20021;-86
2022/01/25 14:39:41;;;;;;;0.10;0.10;;;5.60;99.90;;;;;;6169317;23;20028;-85
2022/01/25 14:42:12;;;;;;;;;;;5.50;99.90;;;;;;6194561;23;20047;-84
2022/01/25 14:44:42;;;;;;;0.10;0.10;;;5.60;99.90;;;;;;6218178;23;19946;-85
2022/01/25 14:47:12;;;;;;;0.10;0.10;;;5.60;99.90;;;;;;6193347;23;20020;-85
2022/01/25 14:49:45;;;;;;;0.10;0.10;;;5.60;99.90;;;;;;6216342;23;20024;-85
2022/01/25 14:52:12;;;;;;;0.10;0.10;;;;;;;;;;6191965;23;20031;-85
2022/01/25 14:54:42;;;;;;;0.10;0.10;;;5.60;99.90;;;;;;6192241;23;20024;-84
2022/01/25 14:57:13;;;;;;;0.10;0.10;;;5.60;99.90;;;;;;6195049;23;20017;-84
2022/01/25 14:59:46;;;;;;;0.10;0.10;;;5.60;99.90;;;;;;6196061;23;20017;-83
2022/01/25 15:02:16;;;;;;;0.10;0.10;;;5.60;99.90;;;;;;6193656;23;20509;-85
2022/01/25 15:04:45;;;;;;;0.10;0.10;;;5.60;99.90;;;;;;6220564;23;20099;-85
2022/01/25 15:07:14;;;;;;;0.10;0.10;;;5.60;99.90;;;;;;6170552;23;20036;-84
2022/01/25 15:12:21;;;;;;;0.10;0.10;;;5.60;99.90;;;;;;6191781;23;20017;-84
2022/01/25 15:14:53;;;;;;;0.10;0.10;;;5.60;99.90;;;;;;6188647;23;20268;-85
2022/01/25 15:17:21;;;;;;;0.10;0.10;;;5.60;99.90;;;;;;6203729;23;20452;-83
2022/01/25 15:19:48;;;;;;;0.10;0.10;;;;;;;;;;6216954;23;20347;-84
2022/01/25 15:22:18;;;;;;;0.10;0.10;;;;;;;;;;6216241;23;20016;-84
2022/01/25 15:24:46;;;;;;;;;;;5.50;99.90;;;;;;6216497;23;20020;-85
2022/01/25 15:27:22;;;;;;;0.10;0.10;;;5.50;99.90;;;;;;6245760;23;20358;-83
2022/01/25 15:29:49;;;;;;;0.10;0.10;;;5.50;99.90;;;;;;6217829;23;20016;-85
2022/01/25 15:32:16;;;;;;;0.10;0.10;;;5.50;99.90;;;;;;6238665;23;20597;-84
2022/01/25 15:34:44;;;;;;;0.00;0.00;;;5.50;99.90;;;;;;6237279;23;20020;-85
2022/01/25 15:37:13;;;;;;;0.10;0.10;;;;;;;;;;6216172;23;20021;-85
2022/01/25 15:39:40;;;;;;;0.10;0.10;;;;;;;;;;6211050;23;20070;-85
2022/01/25 15:42:08;;;;;;;0.10;0.10;;;;;;;;;;6215825;23;20075;-85
2022/01/25 15:44:44;;;;;;;0.10;0.10;;;5.50;99.90;;;;;;6218344;23;20149;-86
2022/01/25 15:47:12;;;;;;;0.00;0.00;;;5.50;99.90;;;;;;6242033;23;20020;-87
2022/01/25 15:49:41;;;;;;;0.10;0.10;;;5.50;99.90;;;;;;6214155;23;20027;-85
2022/01/25 15:52:09;;;;;;;0.10;0.10;;;;;;;;;;6221768;23;20074;-86
2022/01/25 15:54:36;;;;;;;0.10;0.10;;;5.50;99.90;;;;;;6218340;23;20456;-86
2022/01/25 15:57:04;;;;;;;0.10;0.10;;;5.50;99.90;;;;;;6218916;23;20071;-86
2022/01/25 15:59:31;;;;;;;0.10;0.10;;;5.50;99.90;;;;;;6216725;23;20013;-85
2022/01/25 16:02:10;;;;;;;0.10;0.10;;;5.50;99.90;;;;;;6218600;23;20020;-85
2022/01/25 16:04:41;;;;;;;0.10;0.10;;;5.50;99.90;;;;;;6217640;23;20026;-84
2022/01/25 16:07:14;;;;;;;0.10;0.10;;;5.50;99.90;;;;;;6217699;23;20443;-85
2022/01/25 16:09:43;;;;;;;0.10;0.10;;;5.50;99.90;;;;;;6217537;23;20021;-85
2022/01/25 16:12:13;;;;;;;0.10;0.10;;;5.50;99.90;;;;;;6191303;23;20337;-85
2022/01/25 16:14:42;;;;;;;0.10;0.10;;;;;;;;;;6215269;23;20020;-85
2022/01/25 16:17:11;;;;;;;0.10;0.10;;;5.50;99.90;;;;;;6242606;23;20071;-85
2022/01/25 16:19:37;;;;;;;0.10;0.10;;;5.50;99.90;;;;;;6215548;23;20385;-85
2022/01/25 16:22:05;;;;;;;0.10;0.10;;;5.50;99.90;;;;;;6243828;23;20021;-85
2022/01/25 16:24:33;;;;;;;0.10;0.10;;;;;;;;;;6218249;23;20384;-85
2022/01/25 16:27:03;;;;;;;0.10;0.10;;;5.50;99.90;;;;;;6217932;23;20016;-85
2022/01/25 16:29:33;;;;;;;0.10;0.10;;;;;;;;;;6218397;23;20013;-85
2022/01/25 16:32:01;;;;;;;0.10;0.10;;;5.50;99.90;;;;;;6216109;23;20444;-85
2022/01/25 16:34:30;;;;;;;0.03;0.03;;;5.50;99.90;;;;;;6213484;23;20256;-85
2022/01/25 16:36:57;;;;;;;0.10;0.10;;;3.60;99.90;;;;;;6218484;23;20364;-85
2022/01/25 16:39:25;;;;;;;0.10;0.10;;;5.40;99.90;;;;;;6218479;23;20051;-85
2022/01/25 16:41:53;;;;;;;0.10;0.10;;;;;;;;;;6218689;23;20040;-85
2022/01/25 16:44:20;;;;;;;0.10;0.10;;;5.50;99.90;;;;;;6216846;23;20055;-85
2022/01/25 16:46:48;;;;;;;0.10;0.10;;;5.50;99.90;;;;;;6217249;23;20359;-85
2022/01/25 16:49:15;;;;;;;0.10;0.10;;;5.50;99.90;;;;;;6191707;23;20020;-87
2022/01/25 16:51:43;;;;;;;0.10;0.10;;;5.50;99.90;;;;;;6218071;23;20020;-86
2022/01/25 16:54:11;;;;;;;0.10;0.10;;;5.40;99.90;;;;;;6213301;23;20020;-84
2022/01/25 16:56:38;;;;;;;0.00;0.00;;;;;;;;;;6187863;23;20027;-85
2022/01/25 16:59:07;;;;;;;0.05;0.05;;;;;;;;;;6212499;23;20024;-84
2022/01/25 17:01:35;;;;;;;0.10;0.10;;;5.40;99.90;;;;;;6213565;23;20029;-85
2022/01/25 17:04:04;;;;;;;0.10;0.10;;;5.40;99.90;;;;;;6212542;23;20193;-83
2022/01/25 17:06:31;;;;;;;0.10;0.10;;;5.40;99.90;;;;;;6238182;22;20024;-85
2022/01/25 17:09:00;;;;;;;0.10;0.10;;;5.40;99.90;;;;;;6214217;23;20455;-86
2022/01/25 17:11:27;;;;;;;0.08;0.08;;;5.40;99.90;;;;;;6212396;23;20028;-85
2022/01/25 17:13:54;;;;;;;0.03;0.03;;;5.40;99.90;;;;;;6211431;23;20078;-85
2022/01/25 17:16:21;;;;;;;0.10;0.10;;;5.40;99.90;;;;;;6204003;23;20179;-85
2022/01/25 17:18:51;;;;;;;0.10;0.10;;;5.40;99.90;;;;;;6185520;23;20020;-85
2022/01/25 17:21:38;;;;;;;0.10;0.10;;;5.40;99.90;;;;;;6189938;23;20024;-85
2022/01/25 17:24:06;;;;;;;0.10;0.10;;;5.40;99.90;;;;;;6184128;23;20348;-85
2022/01/25 17:26:33;;;;;;;0.03;0.03;;;;;;;;;;6184166;23;20106;-86
2022/01/25 17:29:00;;;;;;;0.10;0.10;;;5.40;99.90;;;;;;6194716;23;20008;-85
2022/01/25 17:31:27;;;;;;;0.10;0.10;;;;;;;;;;6182804;23;20379;-85
2022/01/25 17:34:07;;;;;;;0.17;0.17;;;5.40;99.90;;;;;;6184644;23;20043;-85
2022/01/25 17:36:34;;;;;;;0.10;0.10;;;;;;;;;;6183110;23;20055;-86
2022/01/25 17:39:01;;;;;;;0.03;0.03;;;;;;;;;;6184208;23;20067;-85
2022/01/25 17:41:31;;;;;;;0.10;0.10;;;5.40;99.90;;;;;;6208927;23;20028;-87
2022/01/25 17:43:58;;;;;;;0.10;0.10;;;;;;;;;;6207653;23;20025;-86
2022/01/25 17:46:26;;;;;;;0.10;0.10;;;;;;;;;;6182934;23;20021;-86
2022/01/25 17:48:53;;;;;;;0.10;0.10;;;5.40;99.90;;;;;;6180825;23;20486;-85
2022/01/25 17:51:20;;;;;;;0.10;0.10;;;5.40;99.90;;;;;;6158656;23;20032;-85
2022/01/25 17:53:47;;;;;;;0.10;0.10;;;;;;;;;;6186532;23;20024;-85
2022/01/25 17:56:14;;;;;;;0.10;0.10;;;5.40;99.90;;;;;;6184403;23;20490;-86
2022/01/25 17:58:43;;;;;;;0.10;0.10;;;5.40;99.90;;;;;;6186708;23;20367;-86
2022/01/25 18:01:10;;;;;;;0.10;0.10;;;;;;;;;;6212478;23;20017;-85
2022/01/25 18:03:38;;;;;;;0.10;0.10;;;5.40;99.90;;;;;;6189502;23;20051;-85
2022/01/25 18:06:05;;;;;;;0.10;0.10;;;5.40;99.90;;;;;;6192690;23;20017;-85
2022/01/25 18:08:32;;;;;;;0.10;0.10;;;5.40;99.90;;;;;;6195972;23;20012;-85
2022/01/25 18:11:00;;;;;;;0.10;0.10;;;;;;;;;;6195517;23;20207;-86
2022/01/25 18:13:27;;;;;;;0.10;0.10;;;;;;;;;;6197245;23;20079;-85
2022/01/25 18:15:55;;;;;;;0.10;0.10;;;5.40;99.90;;;;;;6195196;23;20036;-85
2022/01/25 18:18:23;;;;;;;0.10;0.10;;;5.30;99.90;;;;;;6192481;23;20032;-85
2022/01/25 18:20:51;;;;;;;0.10;0.10;;;;;;;;;;6209691;23;20021;-85
2022/01/25 18:23:22;;;;;;;0.10;0.10;;;;;;;;;;6214270;23;20017;-86
2022/01/25 20:02:58;;;;;;;0.10;0.10;;;5.20;99.90;;;;;;6199645;22;20020;-82
2022/01/25 20:05:26;;;;;;;0.10;0.10;;;;;;;;;;6222229;23;20020;-86
2022/01/25 20:07:53;;;;;;;0.10;0.10;;;;;;;;;;6222378;23;20019;-85
2022/01/25 20:10:21;;;;;;;0.10;0.10;;;;;;;;;;6221610;23;20031;-85
2022/01/25 20:12:48;;;;;;;0.05;0.05;;;5.20;99.90;;;;;;6221007;23;20020;-84
2022/01/25 20:15:35;;;;;;;0.00;0.00;;;;;;;;;;6226344;23;20458;-85
2022/01/25 20:18:03;;;;;;;0.10;0.10;;;5.20;99.90;;;;;;6222530;23;20035;-85
2022/01/25 20:20:38;;;;;;;0.10;0.10;;;5.20;99.90;;;;;;6230823;23;20027;-85
2022/01/25 20:23:51;;;;;;;0.10;0.10;;;;;;;;;;6220694;23;20016;-85
2022/01/25 20:26:16;;;;;;;0.10;0.10;;;5.20;99.90;;;;;;6241464;23;20024;-83
2022/01/25 20:28:47;;;;;;;0.10;0.10;;;5.20;99.90;;;;;;6245667;23;20020;-84
2022/01/25 20:31:18;;;;;;;0.10;0.10;;;;;;;;;;6217900;23;20328;-84
2022/01/25 20:33:48;;;;;;;0.05;0.05;;;5.20;99.90;;;;;;6247526;23;20020;-83
2022/01/25 20:36:17;;;;;;;0.10;0.10;;;5.20;99.90;;;;;;6257629;23;20016;-84
2022/01/25 20:38:44;;;;;;;0.10;0.10;;;;;;;;;;6217046;23;20020;-83
2022/01/25 20:41:12;;;;;;;0.08;0.08;;;5.20;99.90;;;;;;6246470;23;20028;-84
2022/01/25 20:43:39;;;;;;;0.00;0.00;;;;;;;;;;6217204;23;20082;-83
2022/01/25 20:46:07;;;;;;;0.10;0.10;;;5.20;99.90;;;;;;6218294;23;20082;-82
2022/01/25 20:48:34;;;;;;;0.10;0.10;;;5.20;99.90;;;;;;6245297;23;20024;-83
2022/01/25 20:51:04;;;;;;;0.10;0.10;;;5.20;99.90;;;;;;6193842;23;20477;-83
2022/01/25 20:53:31;;;;;;;;;;;5.20;99.90;;;;;;6243711;23;20020;-85
2022/01/25 20:55:59;;;;;;;0.10;0.10;;;5.20;99.90;;;;;;6217293;23;19916;-84
2022/01/25 20:58:26;;;;;;;0.00;0.00;;;5.10;99.90;;;;;;6194961;23;20023;-83
2022/01/25 21:00:54;;;;;;;0.10;0.10;;;;;;;;;;6218380;23;20020;-85
2022/01/25 21:08:38;;;;;;;0.10;0.10;;;5.10;99.90;;;;;;6278185;22;20015;-85
2022/01/25 21:11:06;;;;;;;0.08;0.08;;;5.10;99.90;;;;;;6249007;22;20113;-85
2022/01/25 21:13:34;;;;;;;0.10;0.10;;;;;;;;;;6279133;22;20042;-85
2022/01/25 21:16:01;;;;;;;0.10;0.10;;;;;;;;;;6275506;22;20020;-85
2022/01/25 21:18:28;;;;;;;0.10;0.10;;;5.10;99.90;;;;;;6286631;22;20099;-84
2022/01/25 21:20:55;;;;;;;0.10;0.10;;;5.10;99.90;;;;;;6254771;22;20026;-84
2022/01/25 21:23:24;;;;;;;0.10;0.10;;;;;;;;;;6226487;22;20025;-85
2022/01/25 21:25:52;;;;;;;0.10;0.10;;;5.10;99.90;;;;;;6277653;22;20085;-84
2022/01/25 21:28:19;;;;;;;0.10;0.10;;;;;;;;;;6253823;22;20015;-84
2022/01/25 21:30:46;;;;;;;0.10;0.10;;;;;;;;;;6276536;22;20008;-84
2022/01/25 21:33:15;;;;;;;0.10;0.10;;;5.00;99.90;;;;;;6254257;22;20030;-84
2022/01/25 21:35:44;;;;;;;0.03;0.03;;;5.00;99.90;;;;;;6255032;22;20354;-85
2022/01/25 21:38:12;;;;;;;0.10;0.10;;;;;;;;;;6256170;22;20067;-85
2022/01/25 21:40:44;;;;;;;0.10;0.10;;;;;;;;;;6276989;22;20022;-84
2022/01/25 21:43:12;;;;;;;0.10;0.10;;;5.00;99.90;;;;;;6281462;22;20047;-84
2022/01/25 21:45:39;;;;;;;0.10;0.10;;;;;;;;;;6252705;22;20027;-82
2022/01/25 21:48:07;;;;;;;0.10;0.10;;;;;;;;;;6279482;22;20042;-85
2022/01/25 21:50:34;;;;;;;0.10;0.10;;;5.10;99.90;;;;;;6276853;22;20015;-85
2022/01/25 21:53:04;;;;;;;0.10;0.10;;;5.10;99.90;;;;;;6256439;22;20023;-85
2022/01/25 21:55:33;;;;;;;0.10;0.10;;;5.10;99.90;;;;;;6280998;22;20082;-85
2022/01/25 21:58:03;;;;;;;0.10;0.10;;;;;;;;;;6251993;22;20085;-85
2022/01/25 22:00:32;;;;;;;0.00;0.00;;;5.00;99.90;;;;;;6277500;22;20011;-85
2022/01/25 22:03:06;;;;;;;0.10;0.10;;;;;;;;;;6254801;22;20137;-85
2022/01/25 22:05:36;;;;;;;0.10;0.10;;;5.00;99.90;;;;;;6280750;22;20073;-84
2022/01/25 22:08:08;;;;;;;0.10;0.10;;;5.00;99.90;;;;;;6281852;22;20074;-84
2022/01/25 22:10:46;;;;;;;0.10;0.10;;;5.00;99.90;;;;;;6281247;22;20067;-85
2022/01/25 22:13:19;;;;;;;0.10;0.10;;;;;;;;;;6254134;22;20027;-84
2022/01/25 22:15:48;;;;;;;0.10;0.10;;;5.00;99.90;;;;;;6278748;22;20019;-84
2022/01/25 22:18:17;;;;;;;0.10;0.10;;;;;;;;;;6282016;22;20019;-85
2022/01/25 22:20:44;;;;;;;0.10;0.10;;;5.00;99.90;;;;;;6279284;22;20454;-84
2022/01/25 22:23:12;;;;;;;0.10;0.10;;;;;;;;;;6254329;22;20499;-84
2022/01/25 22:25:42;;;;;;;0.00;0.00;;;5.00;99.90;;;;;;6279894;22;20521;-84
2022/01/25 22:28:09;;;;;;;0.10;0.10;;;;;;;;;;6264052;22;20069;-84
2022/01/25 22:30:36;;;;;;;0.10;0.10;;;5.00;99.90;;;;;;6278801;22;20012;-85
2022/01/25 22:33:05;;;;;;;0.10;0.10;;;5.00;99.90;;;;;;6253612;22;20054;-85
2022/01/25 22:35:32;;;;;;;0.10;0.10;;;;;;;;;;6253358;22;20462;-85
2022/01/25 22:37:59;;;;;;;0.10;0.10;;;;;;;;;;6279662;22;20017;-84
2022/01/25 22:40:27;;;;;;;0.10;0.10;;;;;;;;;;6281665;22;20168;-85
2022/01/25 22:42:54;;;;;;;0.10;0.10;;;5.00;99.90;;;;;;6282097;22;20020;-84
2022/01/25 22:45:26;;;;;;;0.10;0.10;;;;;;;;;;6254913;22;20081;-84
2022/01/25 22:47:59;;;;;;;0.10;0.10;;;;;;;;;;6282201;22;20015;-84
2022/01/25 22:50:27;;;;;;;0.00;0.00;;;4.90;99.90;;;;;;6281018;22;20477;-85
2022/01/25 22:52:55;;;;;;;0.00;0.00;;;4.90;99.90;;;;;;6254881;22;20447;-84
2022/01/25 22:55:22;;;;;;;0.10;0.10;;;4.90;99.90;;;;;;6254332;22;20019;-84
2022/01/25 22:57:49;;;;;;;0.10;0.10;;;;;;;;;;6230530;22;20024;-84
2022/01/25 23:00:50;;;;;;;0.10;0.10;;;4.90;99.90;;;;;;6280322;22;20023;-83
2022/01/25 23:03:18;;;;;;;0.10;0.10;;;4.90;99.90;;;;;;6254205;22;20016;-84
2022/01/25 23:05:51;;;;;;;0.00;0.00;;;4.90;99.90;;;;;;6255236;22;20020;-84
2022/01/25 23:08:19;;;;;;;0.10;0.10;;;4.90;99.90;;;;;;6231161;22;20050;-84
2022/01/25 23:11:08;;;;;;;0.00;0.00;;;;;;;;;;6279458;22;20020;-84
2022/01/25 23:16:08;;;;;;;0.10;0.10;;;4.80;99.90;;;;;;6253753;22;20328;-85
2022/01/25 23:18:45;;;;;;;0.10;0.10;;;;;;;;;;6255765;22;20054;-85
2022/01/25 23:21:15;;;;;;;0.00;0.00;;;4.80;99.90;;;;;;6290938;22;20077;-85
2022/01/25 23:23:45;;;;;;;0.10;0.10;;;;;;;;;;6254877;22;20089;-84
2022/01/25 23:26:13;;;;;;;0.08;0.08;;;;;;;;;;6279729;22;20028;-82
2022/01/25 23:28:52;;;;;;;0.10;0.10;;;4.80;99.90;;;;;;6280690;22;20023;-84
2022/01/25 23:36:26;;;;;;;0.10;0.10;;;4.80;99.90;;;;;;6281971;22;20023;-84
2022/01/25 23:38:58;;;;;;;0.08;0.08;;;4.90;99.90;;;;;;6253818;22;20540;-84
2022/01/25 23:41:36;;;;;;;0.10;0.10;;;;;;;;;;6292311;22;20016;-84
2022/01/25 23:44:13;;;;;;;0.10;0.10;;;4.80;99.90;;;;;;6281307;22;20020;-84
2022/01/25 23:46:46;;;;;;;0.10;0.10;;;4.80;99.90;;;;;;6253204;22;20019;-84
2022/01/25 23:49:14;;;;;;;0.10;0.10;;;4.80;99.90;;;;;;6253190;22;20019;-84
